Time;durP1;ratioP1;P1;durP2;ratioP2;P2;SDS_P1;SDS_P2;PMS_P1;PMS_P2;Temp;Humidity;BMP_temperature;BMP_pressure;BME280_temperature;BME280_humidity;BME280_pressure;Samples;Min_cycle;Max_cycle;Signal;HPM_P1;HPM_P2
2021/01/23 00:02:08;;;;;;;54.60;28.15;;;0.50;99.90;;;;;;5096585;28;20058;-66
2021/01/23 00:04:34;;;;;;;49.75;27.70;;;0.50;99.90;;;;;;5097192;28;20103;-66
2021/01/23 00:06:59;;;;;;;46.08;26.83;;;0.50;99.90;;;;;;5097461;28;20127;-66
2021/01/23 00:09:25;;;;;;;52.30;27.98;;;0.50;99.90;;;;;;5095440;28;20507;-66
2021/01/23 00:11:51;;;;;;;49.33;27.45;;;0.50;99.90;;;;;;5097385;28;20081;-66
2021/01/23 00:14:17;;;;;;;51.38;27.90;;;0.50;99.90;;;;;;5096150;28;20024;-66
2021/01/23 00:16:43;;;;;;;55.38;28.67;;;0.50;99.90;;;;;;5097255;28;20107;-66
2021/01/23 00:19:09;;;;;;;57.33;30.48;;;0.50;99.90;;;;;;5096071;28;20517;-66
2021/01/23 00:21:35;;;;;;;52.72;28.58;;;0.50;99.90;;;;;;5095703;28;20032;-66
2021/01/23 00:24:00;;;;;;;57.17;30.58;;;0.50;99.90;;;;;;5097134;28;20031;-66
2021/01/23 00:26:26;;;;;;;53.88;29.08;;;0.50;99.90;;;;;;5097122;28;20021;-66
2021/01/23 00:28:51;;;;;;;59.70;29.60;;;0.40;99.90;;;;;;5096988;28;20028;-66
2021/01/23 00:31:17;;;;;;;55.65;29.40;;;0.50;99.90;;;;;;5096684;28;20024;-66
2021/01/23 00:33:43;;;;;;;56.00;28.52;;;0.50;99.90;;;;;;5096997;28;20066;-66
2021/01/23 00:36:09;;;;;;;53.97;28.75;;;0.50;99.90;;;;;;5096898;28;20452;-66
2021/01/23 00:38:34;;;;;;;56.33;28.50;;;0.50;99.90;;;;;;5096911;28;20098;-66
2021/01/23 00:41:00;;;;;;;57.22;29.85;;;0.50;99.90;;;;;;5096842;28;20031;-66
2021/01/23 00:43:25;;;;;;;55.20;28.77;;;0.50;99.90;;;;;;5096511;28;20043;-66
2021/01/23 00:45:51;;;;;;;60.25;29.95;;;0.60;99.90;;;;;;5096482;28;20030;-66
2021/01/23 00:48:17;;;;;;;58.40;29.02;;;0.60;99.90;;;;;;5094741;28;20024;-66
2021/01/23 00:50:43;;;;;;;61.05;30.67;;;0.60;99.90;;;;;;5096641;28;20343;-66
2021/01/23 00:53:08;;;;;;;58.30;29.38;;;0.60;99.90;;;;;;5096349;28;20023;-66
2021/01/23 00:55:34;;;;;;;53.85;28.13;;;0.60;99.90;;;;;;5095981;28;20016;-66
2021/01/23 00:57:59;;;;;;;60.00;27.25;;;0.60;99.90;;;;;;5096513;28;20496;-66
2021/01/23 01:00:25;;;;;;;62.65;29.67;;;0.50;99.90;;;;;;5096121;28;20039;-66
2021/01/23 01:02:50;;;;;;;54.35;29.27;;;0.60;99.90;;;;;;5096100;28;20024;-66
2021/01/23 01:05:16;;;;;;;55.17;28.60;;;0.60;99.90;;;;;;5095377;28;20035;-66
2021/01/23 01:07:42;;;;;;;56.15;30.08;;;0.50;99.90;;;;;;5095697;28;20055;-66
2021/01/23 01:10:08;;;;;;;54.00;28.67;;;0.50;99.90;;;;;;5095990;28;20473;-66
2021/01/23 01:12:34;;;;;;;50.72;28.25;;;0.50;99.90;;;;;;5095985;28;20103;-66
2021/01/23 01:15:00;;;;;;;47.50;26.85;;;0.50;99.90;;;;;;5096153;28;20048;-66
2021/01/23 01:17:25;;;;;;;55.53;29.13;;;0.50;99.90;;;;;;5095255;28;20511;-66
2021/01/23 01:19:51;;;;;;;53.00;27.60;;;0.40;99.90;;;;;;5095817;28;20350;-66
2021/01/23 01:22:17;;;;;;;52.05;27.65;;;0.50;99.90;;;;;;5096020;28;20024;-66
2021/01/23 01:24:42;;;;;;;46.72;27.20;;;0.40;99.90;;;;;;5095990;28;20028;-66
2021/01/23 01:27:08;;;;;;;51.88;27.92;;;0.40;99.90;;;;;;5094491;28;20074;-66
2021/01/23 01:29:33;;;;;;;54.05;29.05;;;0.40;99.90;;;;;;5095533;28;20473;-66
2021/01/23 01:31:59;;;;;;;59.85;28.27;;;0.40;99.90;;;;;;5095855;28;20069;-66
2021/01/23 01:34:24;;;;;;;52.65;28.58;;;0.40;99.90;;;;;;5095534;28;20026;-66
2021/01/23 01:36:50;;;;;;;49.17;28.02;;;0.40;99.90;;;;;;5095745;28;20453;-66
2021/01/23 01:39:15;;;;;;;51.85;26.98;;;0.30;99.90;;;;;;5095689;28;20035;-66
2021/01/23 01:41:42;;;;;;;56.58;27.20;;;0.30;99.90;;;;;;5095379;28;20024;-66
2021/01/23 01:44:08;;;;;;;52.10;28.23;;;0.30;99.90;;;;;;5094447;28;20027;-66
2021/01/23 01:46:35;;;;;;;51.30;27.48;;;0.30;99.90;;;;;;5095261;28;20024;-66
2021/01/23 01:49:03;;;;;;;50.17;26.95;;;0.30;99.90;;;;;;5095436;28;20651;-66
2021/01/23 01:51:29;;;;;;;49.28;26.33;;;0.30;99.90;;;;;;5077928;28;20020;-66
2021/01/23 01:53:55;;;;;;;48.83;27.70;;;0.30;99.90;;;;;;5095415;28;20031;-66
2021/01/23 01:56:21;;;;;;;49.25;28.23;;;0.30;99.90;;;;;;5095134;28;20078;-66
2021/01/23 01:58:46;;;;;;;55.30;28.73;;;0.30;99.90;;;;;;5095267;28;20032;-66
2021/01/23 02:01:12;;;;;;;53.35;27.95;;;0.20;99.90;;;;;;5094994;28;20031;-66
2021/01/23 02:03:54;;;;;;;54.05;29.73;;;0.20;99.90;;;;;;5095228;28;20016;-66
2021/01/23 02:06:45;;;;;;;57.58;29.67;;;0.20;99.90;;;;;;5093777;28;20432;-66
2021/01/23 02:09:48;;;;;;;54.97;28.63;;;0.20;99.90;;;;;;5094407;28;20495;-66
2021/01/23 02:12:32;;;;;;;40.08;21.75;;;0.30;99.90;;;;;;5094266;28;20397;-66
2021/01/23 02:15:13;;;;;;;55.80;28.35;;;0.20;99.90;;;;;;5094855;28;20089;-66
2021/01/23 02:17:50;;;;;;;57.72;27.75;;;0.20;99.90;;;;;;5093518;28;20027;-66
2021/01/23 02:20:53;;;;;;;53.80;29.73;;;0.20;99.90;;;;;;5076742;28;20375;-66
2021/01/23 02:23:38;;;;;;;53.63;28.63;;;0.20;99.90;;;;;;5094911;28;20020;-66
2021/01/23 02:26:29;;;;;;;61.45;30.73;;;0.20;99.90;;;;;;5093382;28;20059;-66
2021/01/23 02:29:32;;;;;;;54.92;29.58;;;0.20;99.90;;;;;;5094099;28;20028;-66
2021/01/23 02:32:00;;;;;;;55.65;29.15;;;0.20;99.90;;;;;;5094123;28;20054;-66
2021/01/23 02:34:28;;;;;;;54.15;28.33;;;0.30;99.90;;;;;;5094416;28;20500;-66
2021/01/23 02:36:56;;;;;;;61.40;29.58;;;0.30;99.90;;;;;;5094339;28;20024;-66
2021/01/23 02:39:23;;;;;;;56.17;29.50;;;0.30;99.90;;;;;;5094611;28;20020;-66
2021/01/23 02:41:50;;;;;;;55.40;28.80;;;0.30;99.90;;;;;;5093095;28;20031;-66
2021/01/23 02:44:16;;;;;;;51.65;28.05;;;0.30;99.90;;;;;;5094514;28;20059;-66
2021/01/23 02:46:41;;;;;;;60.90;31.00;;;0.20;99.90;;;;;;5094211;28;20024;-66
2021/01/23 02:49:07;;;;;;;58.80;29.42;;;0.20;99.90;;;;;;5094390;28;20032;-66
2021/01/23 02:51:59;;;;;;;58.40;29.48;;;0.20;99.90;;;;;;5092989;28;20028;-66
2021/01/23 02:54:39;;;;;;;58.58;31.08;;;0.30;99.90;;;;;;5093836;28;20012;-66
2021/01/23 02:57:08;;;;;;;57.42;28.33;;;0.40;99.90;;;;;;5094373;28;20020;-66
2021/01/23 02:59:36;;;;;;;57.47;29.02;;;0.40;99.90;;;;;;5094023;28;20024;-66
2021/01/23 03:02:03;;;;;;;55.88;28.05;;;0.40;99.90;;;;;;5094292;28;20461;-66
2021/01/23 03:04:31;;;;;;;63.00;28.73;;;0.40;99.90;;;;;;5094256;28;20024;-66
2021/01/23 03:06:57;;;;;;;53.78;27.40;;;0.50;99.90;;;;;;5092378;28;20024;-66
2021/01/23 03:09:25;;;;;;;53.20;26.63;;;0.40;99.90;;;;;;5093433;28;20044;-66
2021/01/23 03:11:51;;;;;;;51.42;27.30;;;0.40;99.90;;;;;;5094187;28;20070;-66
2021/01/23 03:14:17;;;;;;;57.08;26.88;;;0.50;99.90;;;;;;5094161;28;20468;-66
2021/01/23 03:16:58;;;;;;;52.90;27.00;;;0.50;99.90;;;;;;5094094;28;20023;-66
2021/01/23 03:19:24;;;;;;;56.15;27.58;;;0.50;99.90;;;;;;5092626;28;20032;-66
2021/01/23 03:21:51;;;;;;;48.47;26.27;;;0.60;99.90;;;;;;5093113;28;20419;-66
2021/01/23 03:24:18;;;;;;;52.33;25.90;;;0.60;99.90;;;;;;5095190;28;20488;-66
2021/01/23 03:26:44;;;;;;;50.40;26.80;;;0.50;99.90;;;;;;5098229;28;20024;-66
2021/01/23 03:29:10;;;;;;;52.78;27.25;;;0.50;99.90;;;;;;5098125;28;20032;-66
2021/01/23 03:31:35;;;;;;;51.42;25.75;;;0.50;99.90;;;;;;5097172;28;20051;-66
2021/01/23 03:34:02;;;;;;;54.42;26.55;;;0.50;99.90;;;;;;5096603;28;20491;-66
2021/01/23 03:36:28;;;;;;;55.63;26.48;;;0.50;99.90;;;;;;5098077;28;20170;-66
2021/01/23 03:38:53;;;;;;;55.80;27.27;;;0.50;99.90;;;;;;5097743;28;20499;-66
2021/01/23 03:41:19;;;;;;;55.20;26.63;;;0.50;99.90;;;;;;5097449;28;20020;-66
2021/01/23 03:43:45;;;;;;;53.08;26.85;;;0.50;99.90;;;;;;5097915;28;20032;-66
2021/01/23 03:46:13;;;;;;;54.05;27.95;;;0.50;99.90;;;;;;5096878;28;20024;-66
2021/01/23 03:48:38;;;;;;;57.50;28.83;;;0.50;99.90;;;;;;5097428;28;20020;-66
2021/01/23 03:51:05;;;;;;;62.20;27.88;;;0.50;99.90;;;;;;5097784;28;20073;-66
2021/01/23 03:53:31;;;;;;;56.15;27.80;;;0.50;99.90;;;;;;5097735;28;20017;-66
2021/01/23 03:55:57;;;;;;;56.78;27.02;;;0.60;99.90;;;;;;5096285;28;20119;-66
2021/01/23 03:58:23;;;;;;;57.13;27.60;;;0.60;99.90;;;;;;5095841;28;20107;-66
2021/01/23 04:00:48;;;;;;;60.00;27.83;;;0.60;99.90;;;;;;5097349;28;20050;-66
2021/01/23 04:03:14;;;;;;;60.42;28.15;;;0.60;99.90;;;;;;5095808;28;20028;-66
2021/01/23 04:05:40;;;;;;;54.50;26.23;;;0.60;99.90;;;;;;5097532;28;20466;-66
2021/01/23 04:08:06;;;;;;;58.55;27.48;;;0.60;99.90;;;;;;5096945;28;20040;-66
2021/01/23 04:10:32;;;;;;;57.15;27.90;;;0.50;99.90;;;;;;5095972;28;20020;-66
2021/01/23 04:12:58;;;;;;;59.85;27.98;;;0.50;99.90;;;;;;5097364;28;20545;-66
2021/01/23 04:15:24;;;;;;;58.72;27.25;;;0.50;99.90;;;;;;5097376;28;20043;-66
2021/01/23 04:17:50;;;;;;;64.15;28.85;;;0.50;99.90;;;;;;5097008;28;20028;-66
2021/01/23 04:20:16;;;;;;;54.15;26.48;;;0.50;99.90;;;;;;5096980;28;20028;-66
2021/01/23 04:22:41;;;;;;;51.58;26.05;;;0.50;99.90;;;;;;5096055;28;20032;-66
2021/01/23 04:25:08;;;;;;;53.35;26.13;;;0.50;99.90;;;;;;5096125;28;20024;-66
2021/01/23 04:27:33;;;;;;;50.08;25.27;;;0.50;99.90;;;;;;5095604;28;20036;-66
2021/01/23 04:30:00;;;;;;;52.45;26.63;;;0.40;99.90;;;;;;5095669;28;20073;-66
2021/01/23 04:32:26;;;;;;;61.45;26.27;;;0.50;99.90;;;;;;5096742;28;20069;-66
2021/01/23 04:34:51;;;;;;;63.47;28.58;;;0.50;99.90;;;;;;5096726;28;20016;-66
2021/01/23 04:37:17;;;;;;;57.38;26.70;;;0.50;99.90;;;;;;5094749;28;20023;-66
2021/01/23 04:39:43;;;;;;;52.75;24.50;;;0.50;99.90;;;;;;5096869;28;20043;-66
2021/01/23 04:42:09;;;;;;;57.75;25.58;;;0.50;99.90;;;;;;5096828;28;20035;-66
2021/01/23 04:44:36;;;;;;;54.80;27.58;;;0.50;99.90;;;;;;5096474;28;20032;-66
2021/01/23 04:47:03;;;;;;;54.15;27.40;;;0.60;99.90;;;;;;5095001;28;20036;-66
2021/01/23 04:49:30;;;;;;;61.97;27.42;;;0.60;99.90;;;;;;5094872;28;20032;-66
2021/01/23 04:51:56;;;;;;;63.45;29.92;;;0.50;99.90;;;;;;5096656;28;20087;-66
2021/01/23 04:54:21;;;;;;;61.38;29.55;;;0.60;99.90;;;;;;5095376;28;20016;-66
2021/01/23 04:56:49;;;;;;;68.00;29.20;;;0.60;99.90;;;;;;5096226;28;20028;-66
2021/01/23 04:59:14;;;;;;;61.78;27.75;;;0.60;99.90;;;;;;5096203;28;20024;-66
2021/01/23 05:01:40;;;;;;;65.15;27.73;;;0.60;99.90;;;;;;5096469;28;20354;-66
2021/01/23 05:04:05;;;;;;;62.17;28.60;;;0.60;99.90;;;;;;5096371;28;20031;-66
2021/01/23 05:06:31;;;;;;;59.65;26.10;;;0.60;99.90;;;;;;5095104;28;20035;-66
2021/01/23 05:08:57;;;;;;;53.75;25.70;;;0.50;99.90;;;;;;5094282;28;20044;-66
2021/01/23 05:11:46;;;;;;;60.28;26.90;;;0.50;99.90;;;;;;5096252;28;20043;-66
2021/01/23 05:14:14;;;;;;;58.90;26.15;;;0.50;99.90;;;;;;5095873;28;20036;-66
2021/01/23 05:16:39;;;;;;;55.78;27.70;;;0.50;99.90;;;;;;5096165;28;20022;-66
2021/01/23 05:19:06;;;;;;;54.25;26.42;;;0.40;99.90;;;;;;5096139;28;20099;-66
2021/01/23 05:21:33;;;;;;;65.18;29.45;;;0.40;99.90;;;;;;5094614;28;20020;-66
2021/01/23 05:24:04;;;;;;;59.95;27.17;;;0.50;99.90;;;;;;5095005;28;20048;-66
2021/01/23 05:26:29;;;;;;;56.25;26.33;;;0.50;99.90;;;;;;5095969;28;20031;-66
2021/01/23 05:29:09;;;;;;;63.97;27.52;;;0.40;99.90;;;;;;5095830;28;20024;-66
2021/01/23 05:31:34;;;;;;;59.50;28.50;;;0.50;99.90;;;;;;5095590;28;20103;-66
2021/01/23 05:34:00;;;;;;;61.85;27.92;;;0.50;99.90;;;;;;5094336;28;20125;-66
2021/01/23 05:36:26;;;;;;;63.15;28.30;;;0.50;99.90;;;;;;5093945;28;20020;-66
2021/01/23 05:38:51;;;;;;;68.65;29.05;;;0.50;99.90;;;;;;5094258;28;20027;-66
2021/01/23 05:41:17;;;;;;;66.63;26.48;;;0.50;99.90;;;;;;5095080;28;20026;-66
2021/01/23 05:43:51;;;;;;;61.63;29.10;;;0.50;99.90;;;;;;5095316;28;20024;-66
2021/01/23 05:46:32;;;;;;;59.92;27.65;;;0.50;99.90;;;;;;5094018;28;20461;-66
2021/01/23 05:48:58;;;;;;;55.33;26.70;;;0.40;99.90;;;;;;5094366;28;20056;-66
2021/01/23 05:51:25;;;;;;;63.67;28.00;;;0.40;99.90;;;;;;5093946;28;20035;-66
2021/01/23 05:53:51;;;;;;;60.50;26.35;;;0.40;99.90;;;;;;5095184;28;20020;-66
2021/01/23 05:56:17;;;;;;;58.47;27.08;;;0.30;99.90;;;;;;5095381;28;20047;-66
2021/01/23 05:58:44;;;;;;;64.07;27.20;;;0.30;99.90;;;;;;5095033;28;20028;-66
2021/01/23 06:01:20;;;;;;;68.57;29.80;;;0.30;99.90;;;;;;5095026;28;20016;-66
2021/01/23 06:03:51;;;;;;;56.97;24.58;;;0.30;99.90;;;;;;5094902;28;20407;-66
2021/01/23 06:06:17;;;;;;;63.92;25.88;;;0.40;99.90;;;;;;5094954;28;20021;-66
2021/01/23 06:08:47;;;;;;;58.03;26.27;;;0.30;99.90;;;;;;5094482;28;20046;-66
2021/01/23 06:11:25;;;;;;;54.80;25.42;;;0.30;99.90;;;;;;5094880;28;20051;-66
2021/01/23 06:13:52;;;;;;;55.58;24.65;;;0.30;99.90;;;;;;5093218;28;20023;-66
2021/01/23 06:27:10;;;;;;;65.93;34.90;;;0.50;99.90;;;;;;5110791;27;20394;-67
2021/01/23 06:29:38;;;;;;;55.08;26.70;;;0.50;99.90;;;;;;5111353;28;20035;-67
2021/01/23 06:35:00;;;;;;;43.58;20.80;;;0.50;99.90;;;;;;5112254;27;20339;-67
2021/01/23 06:37:31;;;;;;;47.70;21.83;;;0.50;99.90;;;;;;5111976;28;20028;-65
2021/01/23 06:42:37;;;;;;;49.55;22.83;;;0.50;99.90;;;;;;5112224;27;20105;-65
2021/01/23 06:45:24;;;;;;;50.42;22.35;;;0.60;99.90;;;;;;5111940;28;20020;-66
2021/01/23 06:47:53;;;;;;;45.20;21.92;;;0.70;99.90;;;;;;5111335;28;20038;-65
2021/01/23 06:50:39;;;;;;;49.83;22.13;;;0.60;99.90;;;;;;5111813;28;20354;-67
2021/01/23 06:53:22;;;;;;;46.85;21.25;;;0.70;99.90;;;;;;5111450;28;20411;-67
2021/01/23 06:55:54;;;;;;;48.20;22.58;;;0.70;99.90;;;;;;5111460;28;20077;-67
2021/01/23 06:58:28;;;;;;;50.13;21.63;;;0.70;99.90;;;;;;5127709;27;20036;-67
2021/01/23 07:03:33;;;;;;;48.75;20.90;;;0.70;99.90;;;;;;5091900;28;20405;-66
2021/01/23 07:06:00;;;;;;;50.22;22.80;;;0.70;99.90;;;;;;5091310;28;20028;-66
2021/01/23 07:08:30;;;;;;;50.15;22.50;;;0.70;99.90;;;;;;5090949;28;20058;-66
2021/01/23 07:11:17;;;;;;;45.53;21.63;;;0.70;99.90;;;;;;5091499;28;20031;-67
2021/01/23 07:14:04;;;;;;;48.50;22.15;;;0.70;99.90;;;;;;5091404;28;20024;-67
2021/01/23 07:16:31;;;;;;;42.22;20.17;;;0.70;99.90;;;;;;5090784;28;20024;-66
2021/01/23 07:18:59;;;;;;;50.08;21.95;;;0.60;99.90;;;;;;5091318;28;20073;-67
2021/01/23 07:21:25;;;;;;;52.08;23.88;;;0.60;99.90;;;;;;5090078;28;20081;-66
2021/01/23 07:23:54;;;;;;;43.05;20.92;;;0.60;99.90;;;;;;5091227;28;20019;-66
2021/01/23 07:26:20;;;;;;;42.13;20.05;;;0.60;99.90;;;;;;5090643;28;20017;-67
2021/01/23 07:28:55;;;;;;;44.72;20.67;;;0.60;99.90;;;;;;5090550;28;20036;-66
2021/01/23 07:31:31;;;;;;;51.78;22.55;;;0.60;99.90;;;;;;5091075;28;20343;-66
2021/01/23 07:33:59;;;;;;;43.60;20.95;;;0.70;99.90;;;;;;5091019;28;20145;-66
2021/01/23 07:36:32;;;;;;;42.90;19.98;;;0.80;99.90;;;;;;5090703;28;20024;-67
2021/01/23 07:38:59;;;;;;;37.03;18.67;;;0.80;99.90;;;;;;5090355;28;20026;-67
2021/01/23 07:41:28;;;;;;;38.28;19.65;;;0.80;99.90;;;;;;5090824;28;20047;-67
2021/01/23 07:43:54;;;;;;;41.28;19.90;;;0.90;99.90;;;;;;5090574;28;20020;-67
2021/01/23 07:46:20;;;;;;;44.78;21.40;;;0.90;99.90;;;;;;5090201;28;20031;-67
2021/01/23 07:48:46;;;;;;;44.72;20.77;;;0.90;99.90;;;;;;5090753;28;20031;-67
2021/01/23 07:51:28;;;;;;;56.90;25.52;;;1.00;99.90;;;;;;5089207;28;20418;-67
2021/01/23 07:54:10;;;;;;;51.80;23.92;;;1.10;99.90;;;;;;5090427;28;20017;-67
2021/01/23 07:56:37;;;;;;;39.83;17.10;;;1.20;99.90;;;;;;5090360;28;20020;-67
2021/01/23 07:59:04;;;;;;;47.45;21.55;;;1.20;99.90;;;;;;5090296;28;20020;-67
2021/01/23 08:01:29;;;;;;;44.78;21.20;;;1.30;99.90;;;;;;5089937;28;20150;-67
2021/01/23 08:03:55;;;;;;;40.25;19.95;;;1.30;99.90;;;;;;5090243;28;20028;-67
2021/01/23 08:06:24;;;;;;;47.45;22.42;;;1.40;99.90;;;;;;5089921;28;20063;-67
2021/01/23 08:08:50;;;;;;;40.92;19.35;;;1.50;99.90;;;;;;5090408;28;20013;-67
2021/01/23 08:11:37;;;;;;;44.03;21.27;;;1.50;99.90;;;;;;5090378;28;20103;-67
2021/01/23 08:14:12;;;;;;;39.70;20.52;;;1.60;99.90;;;;;;5081628;28;20419;-67
2021/01/23 08:16:54;;;;;;;40.42;21.13;;;1.70;99.90;;;;;;5076511;28;20051;-67
2021/01/23 08:19:20;;;;;;;35.65;18.90;;;1.80;99.90;;;;;;5075165;28;20390;-67
2021/01/23 08:22:07;;;;;;;38.65;18.70;;;1.90;99.90;;;;;;5076590;28;20024;-67
2021/01/23 08:24:33;;;;;;;36.95;16.92;;;2.10;99.90;;;;;;5076583;28;20055;-67
2021/01/23 08:27:00;;;;;;;36.53;18.30;;;2.20;99.90;;;;;;5075350;28;20097;-67
2021/01/23 08:29:26;;;;;;;32.80;16.85;;;2.40;99.90;;;;;;5076504;28;20023;-67
2021/01/23 08:32:07;;;;;;;28.15;13.63;;;2.50;99.90;;;;;;5076495;28;20461;-67
2021/01/23 08:34:33;;;;;;;29.30;15.02;;;2.60;99.90;;;;;;5076457;28;20024;-67
2021/01/23 08:36:58;;;;;;;28.80;14.70;;;2.70;99.90;;;;;;5076107;28;20482;-67
2021/01/23 08:39:24;;;;;;;23.55;12.63;;;3.00;99.90;;;;;;5074925;28;20393;-67
2021/01/23 08:41:49;;;;;;;23.95;10.88;;;3.30;99.90;;;;;;5075958;28;20414;-67
2021/01/23 08:44:15;;;;;;;19.05;11.20;;;3.60;99.90;;;;;;5075985;28;20025;-67
2021/01/23 08:46:40;;;;;;;21.15;11.60;;;3.90;99.90;;;;;;5076205;28;20469;-65
2021/01/23 08:49:06;;;;;;;21.40;10.10;;;4.30;99.90;;;;;;5076200;28;20551;-65
2021/01/23 08:51:33;;;;;;;24.58;11.52;;;4.80;99.90;;;;;;5075561;28;20052;-66
2021/01/23 08:53:59;;;;;;;22.70;12.35;;;5.30;99.90;;;;;;5075532;28;20024;-66
2021/01/23 08:56:24;;;;;;;22.52;12.23;;;5.60;99.90;;;;;;5076042;28;20032;-66
2021/01/23 08:58:50;;;;;;;21.42;13.00;;;5.50;99.90;;;;;;5075948;28;20028;-66
2021/01/23 09:01:15;;;;;;;25.70;13.68;;;5.30;99.90;;;;;;5075332;28;20024;-66
2021/01/23 09:03:41;;;;;;;24.05;12.10;;;5.00;99.90;;;;;;5075913;28;20410;-65
2021/01/23 09:06:07;;;;;;;22.00;11.80;;;4.80;99.90;;;;;;5075558;28;20034;-66
2021/01/23 09:08:33;;;;;;;18.80;11.38;;;4.70;99.90;;;;;;5073982;28;20025;-67
2021/01/23 09:10:58;;;;;;;16.70;10.52;;;4.70;99.90;;;;;;5074533;28;20078;-67
2021/01/23 09:13:24;;;;;;;16.45;9.60;;;4.70;99.90;;;;;;5075704;28;20039;-67
2021/01/23 09:15:49;;;;;;;16.35;9.60;;;4.60;99.90;;;;;;5075621;28;20035;-67
2021/01/23 09:18:15;;;;;;;13.15;8.52;;;4.50;99.90;;;;;;5075283;28;20032;-67
2021/01/23 09:20:40;;;;;;;18.92;10.02;;;4.40;99.90;;;;;;5075186;28;20470;-67
2021/01/23 09:23:06;;;;;;;22.52;11.07;;;4.50;99.90;;;;;;5075382;28;20029;-67
2021/01/23 09:25:31;;;;;;;16.63;9.70;;;4.40;99.90;;;;;;5074418;28;20401;-67
2021/01/23 09:27:57;;;;;;;16.88;9.63;;;4.30;99.90;;;;;;5075120;28;20029;-67
2021/01/23 09:30:23;;;;;;;15.95;9.55;;;4.20;99.90;;;;;;5075324;28;20099;-67
2021/01/23 09:32:49;;;;;;;17.17;10.07;;;4.20;99.90;;;;;;5075241;28;20071;-67
2021/01/23 09:35:14;;;;;;;17.80;10.15;;;4.20;99.90;;;;;;5075255;28;20024;-67
2021/01/23 09:37:40;;;;;;;12.43;8.75;;;4.20;99.90;;;;;;5075193;28;20454;-67
2021/01/23 09:40:06;;;;;;;17.05;9.70;;;4.20;99.90;;;;;;5075058;28;20033;-67
2021/01/23 09:42:32;;;;;;;14.15;9.50;;;4.20;99.90;;;;;;5074988;28;20058;-67
2021/01/23 09:44:58;;;;;;;16.35;9.52;;;4.20;99.90;;;;;;5075049;28;20056;-67
2021/01/23 09:47:24;;;;;;;14.73;9.20;;;4.30;99.90;;;;;;5074625;28;20458;-67
2021/01/23 09:49:50;;;;;;;16.38;10.10;;;4.30;99.90;;;;;;5074879;28;20023;-67
2021/01/23 09:52:15;;;;;;;15.25;9.15;;;4.40;99.90;;;;;;5074626;28;20120;-67
2021/01/23 09:54:41;;;;;;;14.65;9.27;;;4.40;99.90;;;;;;5074867;28;20025;-66
2021/01/23 09:57:07;;;;;;;14.13;9.52;;;4.50;99.90;;;;;;5074806;28;20074;-67
2021/01/23 09:59:33;;;;;;;13.52;8.43;;;4.50;99.90;;;;;;5074758;28;20029;-66
2021/01/23 10:01:59;;;;;;;13.40;8.85;;;4.60;99.90;;;;;;5074248;28;20050;-67
2021/01/23 10:04:26;;;;;;;13.73;8.45;;;4.70;99.90;;;;;;5074393;28;20031;-67
2021/01/23 10:06:51;;;;;;;15.50;8.93;;;4.80;99.90;;;;;;5074575;28;20120;-67
2021/01/23 10:09:17;;;;;;;11.85;8.40;;;4.90;99.90;;;;;;5074309;28;20477;-67
2021/01/23 10:11:44;;;;;;;12.50;8.07;;;5.00;99.90;;;;;;5073956;28;20481;-67
2021/01/23 10:14:09;;;;;;;12.18;8.10;;;5.10;99.90;;;;;;5073956;28;20028;-67
2021/01/23 10:16:35;;;;;;;13.27;8.52;;;5.30;99.90;;;;;;5073006;28;20036;-67
2021/01/23 10:19:03;;;;;;;11.07;7.57;;;5.50;99.90;;;;;;5074105;28;20016;-67
2021/01/23 10:21:29;;;;;;;12.88;6.90;;;5.50;99.90;;;;;;5073537;28;20108;-67
2021/01/23 10:23:54;;;;;;;10.23;7.32;;;5.50;99.90;;;;;;5074312;28;20479;-65
2021/01/23 10:26:20;;;;;;;12.95;8.05;;;5.70;99.90;;;;;;5074320;28;20020;-67
2021/01/23 10:28:45;;;;;;;12.05;7.88;;;5.70;99.90;;;;;;5074245;28;20028;-67
2021/01/23 10:31:11;;;;;;;14.25;8.23;;;5.70;99.90;;;;;;5073050;28;20091;-67
2021/01/23 10:33:36;;;;;;;11.00;7.53;;;5.70;99.90;;;;;;5073655;28;20025;-67
2021/01/23 10:36:02;;;;;;;15.10;7.80;;;5.70;99.90;;;;;;5073560;28;20024;-67
2021/01/23 10:38:28;;;;;;;11.80;7.72;;;5.80;99.90;;;;;;5072716;28;20074;-67
2021/01/23 10:40:54;;;;;;;13.05;7.30;;;5.80;99.90;;;;;;5074135;28;20059;-67
2021/01/23 10:43:19;;;;;;;9.35;6.75;;;5.90;99.90;;;;;;5073679;28;20024;-68
2021/01/23 10:45:46;;;;;;;11.80;7.32;;;6.00;99.90;;;;;;5074059;28;20028;-67
2021/01/23 10:48:11;;;;;;;10.65;6.85;;;6.00;99.90;;;;;;5073975;28;20016;-64
2021/01/23 10:50:37;;;;;;;10.20;6.65;;;6.70;99.90;;;;;;5073682;28;20397;-65
2021/01/23 10:53:03;;;;;;;10.35;6.55;;;7.70;99.90;;;;;;5073560;28;20032;-68
2021/01/23 10:55:28;;;;;;;8.13;6.30;;;8.60;99.90;;;;;;5073871;28;20029;-67
2021/01/23 10:57:54;;;;;;;10.85;6.97;;;8.90;99.90;;;;;;5072704;28;20020;-67
2021/01/23 11:00:20;;;;;;;11.95;6.93;;;8.60;99.90;;;;;;5073772;28;20025;-67
2021/01/23 11:02:46;;;;;;;10.77;7.65;;;7.90;99.90;;;;;;5073240;28;20080;-67
2021/01/23 11:05:11;;;;;;;11.45;7.13;;;7.40;99.90;;;;;;5072800;28;20067;-67
2021/01/23 11:07:37;;;;;;;15.85;7.97;;;7.00;99.90;;;;;;5073867;28;20052;-67
2021/01/23 11:10:04;;;;;;;11.25;7.22;;;6.80;99.90;;;;;;5073805;28;20024;-67
2021/01/23 11:12:29;;;;;;;14.10;8.07;;;6.70;99.90;;;;;;5073497;28;20481;-67
2021/01/23 11:14:55;;;;;;;15.02;8.23;;;6.30;99.90;;;;;;5073479;28;20134;-67
2021/01/23 11:17:20;;;;;;;12.00;7.57;;;6.20;99.90;;;;;;5073776;28;20098;-67
2021/01/23 11:19:46;;;;;;;11.60;7.75;;;6.30;99.90;;;;;;5073709;28;20389;-67
2021/01/23 11:22:11;;;;;;;14.35;8.10;;;6.30;99.90;;;;;;5073639;28;20033;-67
2021/01/23 11:24:39;;;;;;;12.05;8.05;;;6.30;99.90;;;;;;5073416;28;20028;-67
2021/01/23 11:27:05;;;;;;;12.52;7.45;;;6.30;99.90;;;;;;5073048;28;20108;-67
2021/01/23 11:29:30;;;;;;;16.42;8.50;;;6.30;99.90;;;;;;5073429;28;20055;-67
2021/01/23 11:31:56;;;;;;;15.35;8.57;;;6.40;99.90;;;;;;5073389;28;20449;-67
2021/01/23 11:34:21;;;;;;;15.13;8.63;;;6.40;99.90;;;;;;5073439;28;20112;-67
2021/01/23 11:36:46;;;;;;;12.95;8.15;;;6.30;99.90;;;;;;5073482;28;20060;-67
2021/01/23 11:39:12;;;;;;;13.65;8.57;;;6.30;99.90;;;;;;5073469;28;20043;-67
2021/01/23 11:41:39;;;;;;;13.07;7.75;;;6.30;99.90;;;;;;5073344;28;20025;-67
2021/01/23 11:44:05;;;;;;;15.25;8.60;;;6.20;99.90;;;;;;5073466;28;20023;-67
2021/01/23 11:46:31;;;;;;;13.82;8.18;;;6.10;99.90;;;;;;5073338;28;20060;-67
2021/01/23 11:48:56;;;;;;;11.48;7.53;;;6.10;99.90;;;;;;5074808;28;20028;-67
2021/01/23 11:51:23;;;;;;;13.60;8.30;;;6.10;99.90;;;;;;5059223;28;20029;-67
2021/01/23 11:53:48;;;;;;;13.30;7.63;;;6.20;99.90;;;;;;5076865;28;20441;-67
2021/01/23 11:56:14;;;;;;;11.82;7.72;;;6.20;99.90;;;;;;5077170;28;20056;-67
2021/01/23 11:58:42;;;;;;;15.48;7.38;;;6.10;99.90;;;;;;5077135;28;20024;-67
2021/01/23 12:01:07;;;;;;;10.95;7.47;;;6.10;99.90;;;;;;5076304;28;20021;-68
2021/01/23 12:03:33;;;;;;;13.00;7.40;;;6.10;99.90;;;;;;5076622;28;20040;-67
2021/01/23 12:05:58;;;;;;;16.00;8.23;;;6.20;99.90;;;;;;5076885;28;20024;-67
2021/01/23 12:08:24;;;;;;;12.57;7.78;;;6.30;99.90;;;;;;5076658;28;20021;-67
2021/01/23 12:10:49;;;;;;;12.95;7.78;;;6.40;99.90;;;;;;5076610;28;20112;-67
2021/01/23 12:13:15;;;;;;;13.85;7.30;;;6.40;99.90;;;;;;5076517;28;20098;-67
2021/01/23 12:15:40;;;;;;;12.65;7.43;;;6.60;99.90;;;;;;5076523;28;20484;-67
2021/01/23 12:18:06;;;;;;;12.20;7.93;;;7.10;99.90;;;;;;5076486;28;20028;-67
2021/01/23 12:20:33;;;;;;;14.48;8.82;;;7.40;99.90;;;;;;5076738;28;20051;-67
2021/01/23 12:22:59;;;;;;;14.40;9.43;;;7.60;99.90;;;;;;5075574;28;20355;-67
2021/01/23 12:25:26;;;;;;;12.95;7.53;;;8.00;99.90;;;;;;5076257;28;20096;-67
2021/01/23 12:27:52;;;;;;;12.05;7.32;;;8.20;99.90;;;;;;5076446;28;20063;-67
2021/01/23 12:30:18;;;;;;;17.90;7.57;;;8.00;99.90;;;;;;5075078;28;20048;-67
2021/01/23 12:32:44;;;;;;;12.23;7.32;;;8.10;99.90;;;;;;5076214;28;20024;-67
2021/01/23 12:35:10;;;;;;;15.10;7.63;;;8.20;99.90;;;;;;5076449;28;20025;-67
2021/01/23 12:37:37;;;;;;;13.82;7.30;;;8.00;99.90;;;;;;5076403;28;20032;-67
2021/01/23 12:40:05;;;;;;;50.03;20.30;;;7.80;99.90;;;;;;5074533;28;20062;-67
2021/01/23 12:42:30;;;;;;;17.88;9.25;;;7.90;99.90;;;;;;5075691;28;20071;-67
2021/01/23 12:44:56;;;;;;;13.23;7.28;;;8.10;99.90;;;;;;5076255;28;20493;-67
2021/01/23 12:47:21;;;;;;;12.63;7.03;;;8.30;99.90;;;;;;5074693;28;20059;-67
2021/01/23 12:49:47;;;;;;;13.98;7.00;;;8.50;99.90;;;;;;5076164;28;20063;-67
2021/01/23 12:52:12;;;;;;;10.60;6.25;;;8.40;99.90;;;;;;5076109;28;20050;-67
2021/01/23 12:54:38;;;;;;;11.88;5.93;;;8.30;99.90;;;;;;5075764;28;20090;-67
2021/01/23 12:57:04;;;;;;;12.35;6.22;;;8.00;99.90;;;;;;5076001;28;20028;-67
2021/01/23 12:59:30;;;;;;;10.82;6.82;;;7.90;99.90;;;;;;5075822;28;20032;-67
2021/01/23 13:01:55;;;;;;;10.68;6.43;;;7.80;99.90;;;;;;5075333;28;20076;-67
2021/01/23 13:04:21;;;;;;;17.40;9.15;;;7.80;99.90;;;;;;5075893;28;20096;-67